DEODO EDDN-EDDN

Flight info

Callsign DEODO
Flight time 0h 14m
Altitude 030
Route DCT
Aircraft DA40

Departure

Time 2026-05-05 10:30
Airport Nuremberg Airport (EDDN)

Arrival

Time 2026-05-05 10:44
Airport Nuremberg Airport (EDDN)
Time Latitude Longitude Altitude Speed Heading
2026-05-05 10:18 49.49452 11.06886 1020 ft 0 kts 277°
2026-05-05 10:22 49.49452 11.06883 1020 ft 2 kts 278°
2026-05-05 10:22 49.49465 11.06867 1020 ft 1 kts 351°
2026-05-05 10:22 49.49486 11.06874 1022 ft 4 kts 11°
2026-05-05 10:22 49.49517 11.06890 1023 ft 5 kts 49°
2026-05-05 10:23 49.49524 11.06996 1023 ft 12 kts 100°
2026-05-05 10:23 49.49508 11.07139 1024 ft 15 kts 97°
2026-05-05 10:23 49.49529 11.07194 1025 ft 5 kts
2026-05-05 10:23 49.49592 11.07210 1027 ft 11 kts
2026-05-05 10:24 49.49639 11.07239 1029 ft 4 kts 88°
2026-05-05 10:24 49.49630 11.07335 1030 ft 13 kts 95°
2026-05-05 10:24 49.49615 11.07507 1031 ft 19 kts 96°
2026-05-05 10:24 49.49604 11.07681 1033 ft 16 kts 90°
2026-05-05 10:25 49.49579 11.07854 1033 ft 18 kts 101°
2026-05-05 10:25 49.49561 11.08046 1033 ft 17 kts 99°
2026-05-05 10:25 49.49545 11.08240 1034 ft 19 kts 99°
2026-05-05 10:25 49.49539 11.08337 1036 ft 3 kts 73°
2026-05-05 10:26 49.49573 11.08356 1037 ft 8 kts
2026-05-05 10:26 49.49625 11.08399 1037 ft 8 kts 54°
2026-05-05 10:26 49.49663 11.08481 1038 ft 10 kts 54°
2026-05-05 10:26 49.49698 11.08543 1039 ft 3 kts 37°
2026-05-05 10:27 49.49700 11.08546 1039 ft 0 kts 35°
2026-05-05 10:28 49.49702 11.08549 1039 ft 4 kts 34°
2026-05-05 10:29 49.49768 11.08567 1038 ft 13 kts 355°
2026-05-05 10:29 49.49804 11.08481 1038 ft 24 kts 278°
2026-05-05 10:29 49.49848 11.07975 1042 ft 67 kts 274°
2026-05-05 10:29 49.49924 11.07138 1119 ft 89 kts 281°
2026-05-05 10:30 49.50005 11.06213 1360 ft 90 kts 281°
2026-05-05 10:30 49.50057 11.05570 1470 ft 94 kts 279°
2026-05-05 10:30 49.50220 11.04585 1661 ft 95 kts 296°
2026-05-05 10:30 49.50540 11.03630 1759 ft 104 kts 316°
2026-05-05 10:31 49.51232 11.03460 1838 ft 112 kts 18°
2026-05-05 10:31 49.52001 11.03804 1916 ft 117 kts 13°
2026-05-05 10:31 49.52729 11.04309 2036 ft 121 kts 52°
2026-05-05 10:31 49.52703 11.05880 2503 ft 113 kts 97°
2026-05-05 10:32 49.52630 11.06678 2636 ft 118 kts 96°
2026-05-05 10:32 49.52491 11.07904 2531 ft 119 kts 102°
2026-05-05 10:32 49.52293 11.09122 2424 ft 115 kts 104°
2026-05-05 10:32 49.52052 11.10222 2336 ft 110 kts 112°
2026-05-05 10:33 49.51832 11.11346 2223 ft 108 kts 101°
2026-05-05 10:33 49.51676 11.12460 2126 ft 106 kts 99°
2026-05-05 10:33 49.51509 11.13549 2009 ft 106 kts 105°
2026-05-05 10:33 49.51271 11.14587 1968 ft 100 kts 110°
2026-05-05 10:34 49.50965 11.15556 1863 ft 100 kts 129°
2026-05-05 10:34 49.50344 11.15717 1752 ft 101 kts 197°
2026-05-05 10:34 49.49667 11.15374 1700 ft 104 kts 201°
2026-05-05 10:34 49.49196 11.14788 1723 ft 82 kts 268°
2026-05-05 10:35 49.49243 11.13882 1615 ft 85 kts 278°
2026-05-05 10:35 49.49341 11.12988 1553 ft 86 kts 284°
2026-05-05 10:35 49.49449 11.12089 1488 ft 85 kts 281°
2026-05-05 10:35 49.49534 11.11173 1384 ft 86 kts 281°
2026-05-05 10:36 49.49628 11.10243 1176 ft 87 kts 280°
2026-05-05 10:36 49.49705 11.09396 1062 ft 73 kts 281°
2026-05-05 10:36 49.49778 11.08726 1040 ft 59 kts 283°
2026-05-05 10:36 49.49858 11.07922 1064 ft 91 kts 278°
2026-05-05 10:37 49.49958 11.06818 1057 ft 116 kts 279°
2026-05-05 10:37 49.50025 11.05756 1471 ft 98 kts 273°
2026-05-05 10:37 49.50078 11.04663 1653 ft 100 kts 284°
2026-05-05 10:37 49.50547 11.03809 1722 ft 115 kts 335°
2026-05-05 10:38 49.51353 11.03739 1866 ft 118 kts
2026-05-05 10:38 49.52192 11.03834 1988 ft 124 kts
2026-05-05 10:38 49.52983 11.04092 2127 ft 114 kts 29°
2026-05-05 10:38 49.53374 11.05113 2179 ft 114 kts 86°
2026-05-05 10:39 49.53209 11.06342 2090 ft 117 kts 100°
2026-05-05 10:39 49.53033 11.07528 2059 ft 112 kts 99°
2026-05-05 10:39 49.52888 11.08722 2009 ft 114 kts 97°
2026-05-05 10:39 49.52737 11.09928 1983 ft 115 kts 101°
2026-05-05 10:40 49.52549 11.11118 1945 ft 115 kts 96°
2026-05-05 10:40 49.52514 11.12338 1895 ft 114 kts 88°
2026-05-05 10:40 49.52452 11.13553 1868 ft 113 kts 104°
2026-05-05 10:40 49.51936 11.14344 1950 ft 103 kts 162°
2026-05-05 10:41 49.51175 11.14410 1814 ft 118 kts 178°
2026-05-05 10:41 49.50334 11.14438 1691 ft 122 kts 176°
2026-05-05 10:41 49.49530 11.14444 1803 ft 113 kts 175°
2026-05-05 10:41 49.48727 11.14492 1892 ft 119 kts 178°
2026-05-05 10:42 49.47314 11.15053 2208 ft 112 kts 95°
2026-05-05 10:42 49.47753 11.15776 2340 ft 113 kts
2026-05-05 10:42 49.48608 11.15746 2218 ft 128 kts 356°
2026-05-05 10:43 49.49286 11.15255 2169 ft 107 kts 283°
2026-05-05 10:43 49.49249 11.14077 1849 ft 109 kts 270°
2026-05-05 10:43 49.49316 11.12932 1655 ft 107 kts 278°
2026-05-05 10:43 49.49453 11.11817 1428 ft 107 kts 282°
2026-05-05 10:44 49.49581 11.10715 1220 ft 100 kts 278°
2026-05-05 10:44 49.49676 11.09702 1082 ft 90 kts 278°
2026-05-05 10:44 49.49769 11.08836 1046 ft 71 kts 280°
2026-05-05 10:44 49.49829 11.08246 1038 ft 46 kts 285°
2026-05-05 10:45 49.49877 11.07764 1042 ft 29 kts 284°
2026-05-05 10:45 49.49821 11.07659 1040 ft 16 kts 151°
2026-05-05 10:45 49.49742 11.07718 1040 ft 16 kts 151°
2026-05-05 10:45 49.49741 11.07719 1040 ft 16 kts 150°